Time;durP1;ratioP1;P1;durP2;ratioP2;P2;SDS_P1;SDS_P2;PMS_P1;PMS_P2;Temp;Humidity;BMP_temperature;BMP_pressure;BME280_temperature;BME280_humidity;BME280_pressure;Samples;Min_cycle;Max_cycle;Signal;HPM_P1;HPM_P2
2023/03/23 00:00:38;;;;;;;4.43;2.10;;;;;;;13.48;65.16;99179.88;5070098;28;20052;-59
2023/03/23 00:03:15;;;;;;;5.13;2.00;;;;;;;13.45;64.87;99163.84;5072775;28;20048;-59
2023/03/23 00:05:50;;;;;;;3.80;2.17;;;;;;;13.39;66.03;99171.69;5072763;28;20055;-59
2023/03/23 00:08:28;;;;;;;3.72;2.03;;;;;;;13.34;67.42;99181.19;5072926;28;20413;-59
2023/03/23 00:13:46;;;;;;;5.05;2.20;;;;;;;13.10;67.56;99161.81;5071335;28;20421;-60
2023/03/23 00:16:38;;;;;;;4.07;2.30;;;;;;;13.13;68.04;99161.09;5072571;28;20509;-59
2023/03/23 00:19:16;;;;;;;3.75;2.10;;;;;;;13.14;68.96;99157.09;5072690;28;20075;-60
2023/03/23 00:22:00;;;;;;;4.07;2.35;;;;;;;13.15;69.07;99153.16;5072670;28;20063;-59
2023/03/23 00:24:33;;;;;;;2.72;1.95;;;;;;;13.08;69.11;99147.38;5072662;28;20052;-60
2023/03/23 00:27:06;;;;;;;4.18;2.08;;;;;;;12.98;69.29;99140.38;5072727;28;20063;-60
2023/03/23 00:29:33;;;;;;;4.78;2.50;;;;;;;12.94;69.84;99145.06;5072283;28;20509;-60
2023/03/23 00:35:15;;;;;;;4.28;2.42;;;;;;;12.94;68.48;99140.28;5061393;28;20052;-59
2023/03/23 00:37:45;;;;;;;6.47;2.47;;;;;;;12.94;69.10;99134.69;5072855;28;20071;-60
2023/03/23 00:40:13;;;;;;;5.00;2.60;;;;;;;13.07;68.32;99129.00;5072552;28;20093;-60
2023/03/23 00:42:48;;;;;;;3.20;2.20;;;;;;;13.13;68.89;99131.16;5072956;28;20052;-60
2023/03/23 00:45:21;;;;;;;3.40;2.38;;;;;;;13.15;68.81;99130.78;5072465;28;20060;-59
2023/03/23 00:48:01;;;;;;;3.92;2.00;;;;;;;13.14;68.32;99129.16;5070688;28;20049;-60
2023/03/23 00:50:35;;;;;;;4.72;2.42;;;;;;;13.23;67.99;99123.34;5065173;28;20056;-60
2023/03/23 00:53:03;;;;;;;5.30;2.50;;;;;;;13.24;68.42;99123.00;5072806;28;20056;-60
2023/03/23 00:55:33;;;;;;;3.50;2.17;;;;;;;13.15;68.53;99103.63;5072245;28;20060;-60
2023/03/23 00:58:02;;;;;;;3.58;2.08;;;;;;;13.25;68.46;99124.63;5072459;28;20064;-60
2023/03/23 01:00:36;;;;;;;3.78;2.30;;;;;;;13.24;68.47;99120.19;5072259;28;20520;-59
2023/03/23 01:03:06;;;;;;;3.13;1.85;;;;;;;13.26;68.17;99117.84;5072368;28;20060;-61
2023/03/23 01:05:35;;;;;;;4.68;2.20;;;;;;;13.32;67.63;99118.41;5071161;28;20489;-59
2023/03/23 01:08:10;;;;;;;4.10;2.10;;;;;;;13.32;66.99;99126.78;5072543;28;20052;-60
2023/03/23 01:10:38;;;;;;;3.63;2.03;;;;;;;13.29;67.18;99116.31;5072064;28;20068;-61
2023/03/23 01:13:19;;;;;;;2.50;1.88;;;;;;;13.37;66.22;99121.72;5072403;28;20386;-61
2023/03/23 01:15:54;;;;;;;4.45;1.88;;;;;;;13.33;66.50;99136.78;5072344;28;20060;-60
2023/03/23 01:18:25;;;;;;;4.03;1.77;;;;;;;13.39;65.50;99108.16;5072039;28;20056;-59
2023/03/23 01:20:53;;;;;;;3.22;1.77;;;;;;;13.44;65.98;99109.06;5072808;28;20052;-60
2023/03/23 01:23:22;;;;;;;2.83;1.63;;;;;;;13.45;66.74;99102.28;5072078;28;20045;-60
2023/03/23 01:25:50;;;;;;;4.22;2.13;;;;;;;13.38;66.17;99100.97;5074244;28;20057;-60
2023/03/23 01:28:22;;;;;;;3.45;1.88;;;;;;;13.49;65.92;99108.78;5075738;28;20386;-60
2023/03/23 01:30:50;;;;;;;2.78;1.83;;;;;;;13.50;66.35;99115.97;5075619;28;20052;-59
2023/03/23 01:33:20;;;;;;;4.15;2.00;;;;;;;13.53;65.54;99120.84;5075551;28;20044;-60
2023/03/23 01:35:48;;;;;;;3.53;1.77;;;;;;;13.60;66.32;99121.78;5075358;28;20053;-59
2023/03/23 01:38:15;;;;;;;4.10;2.08;;;;;;;13.52;66.45;99110.81;5075640;28;20059;-59
2023/03/23 01:40:44;;;;;;;3.92;1.98;;;;;;;13.54;66.36;99128.88;5075858;28;20504;-59
2023/03/23 01:43:16;;;;;;;5.03;1.90;;;;;;;13.62;67.43;99112.22;5075540;28;20512;-59
2023/03/23 01:45:47;;;;;;;3.40;1.80;;;;;;;13.44;68.34;99112.69;5075696;28;20063;-59
2023/03/23 01:48:27;;;;;;;3.95;2.00;;;;;;;13.42;69.50;99120.63;5075649;28;20481;-59
2023/03/23 01:51:06;;;;;;;3.28;1.73;;;;;;;13.34;69.68;99125.25;5074515;28;20059;-60
2023/03/23 01:53:39;;;;;;;3.45;2.40;;;;;;;12.87;74.72;99126.16;5075755;28;20056;-61
2023/03/23 01:56:11;;;;;;;4.50;2.53;;;;;;;12.57;77.49;99111.84;5075354;28;20064;-61
2023/03/23 01:58:39;;;;;;;6.00;2.78;;;;;;;12.28;79.79;99119.50;5075227;28;20052;-59
2023/03/23 02:01:12;;;;;;;4.23;3.20;;;;;;;12.00;83.46;99113.16;5075147;28;20049;-59
2023/03/23 02:03:44;;;;;;;10.63;3.40;;;;;;;11.76;87.88;99121.28;5075385;28;20497;-59
2023/03/23 02:06:13;;;;;;;6.68;3.70;;;;;;;11.68;89.74;99116.66;5075439;28;20055;-59
2023/03/23 02:08:43;;;;;;;5.65;3.45;;;;;;;11.67;89.92;99111.44;5075242;28;20049;-60
2023/03/23 02:11:15;;;;;;;5.63;3.38;;;;;;;11.68;89.59;99115.84;5074708;28;20055;-59
2023/03/23 02:13:43;;;;;;;7.28;4.78;;;;;;;11.65;90.47;99119.34;5075181;28;20049;-59
2023/03/23 02:16:21;;;;;;;5.80;3.47;;;;;;;11.67;90.84;99109.44;5074893;28;20059;-60
2023/03/23 02:18:59;;;;;;;4.45;3.13;;;;;;;11.67;89.13;99115.03;5075149;28;20049;-60
2023/03/23 02:21:58;;;;;;;4.85;3.25;;;;;;;11.69;87.90;99098.75;5074877;28;20052;-60
2023/03/23 02:25:05;;;;;;;6.22;3.70;;;;;;;11.82;86.58;99110.66;5074596;28;20048;-61
2023/03/23 02:28:05;;;;;;;4.53;3.75;;;;;;;11.91;86.10;99089.03;5074408;28;20053;-60
2023/03/23 02:31:03;;;;;;;4.00;2.67;;;;;;;11.94;84.58;99087.50;5054285;28;20048;-60
2023/03/23 02:33:45;;;;;;;4.63;3.45;;;;;;;11.93;83.63;99080.31;5047824;28;20063;-60
2023/03/23 02:36:27;;;;;;;6.75;4.30;;;;;;;11.95;83.85;99077.97;5073950;28;20052;-60
2023/03/23 02:39:09;;;;;;;4.50;3.05;;;;;;;11.93;83.88;99075.53;5074275;28;20523;-60
2023/03/23 02:41:44;;;;;;;5.95;3.55;;;;;;;11.95;83.13;99077.97;5074233;28;20070;-61
2023/03/23 02:44:13;;;;;;;5.13;2.92;;;;;;;11.87;82.98;99056.59;5073936;28;20508;-60
2023/03/23 02:46:42;;;;;;;4.55;3.15;;;;;;;11.82;84.25;99043.69;5074827;28;20060;-60
2023/03/23 02:49:16;;;;;;;4.38;3.42;;;;;;;11.89;84.04;99045.91;5072451;28;20049;-60
2023/03/23 02:51:59;;;;;;;4.20;3.20;;;;;;;11.89;83.37;99045.91;5074639;28;20485;-60
2023/03/23 02:54:31;;;;;;;4.85;2.80;;;;;;;11.77;83.11;99016.88;5074299;28;20052;-59
2023/03/23 02:57:07;;;;;;;4.35;2.85;;;;;;;11.73;83.33;99035.50;5074467;28;20049;-62
2023/03/23 02:59:35;;;;;;;3.17;2.83;;;;;;;11.82;82.99;99007.44;5073832;28;20056;-60
2023/03/23 03:02:09;;;;;;;4.82;3.30;;;;;;;11.78;83.81;99017.72;5074175;28;20064;-60
2023/03/23 03:04:42;;;;;;;4.63;3.13;;;;;;;11.81;83.27;99014.19;5074078;28;20052;-60
2023/03/23 03:07:48;;;;;;;3.72;2.80;;;;;;;11.86;82.93;99013.09;5074324;28;20045;-60
2023/03/23 03:10:34;;;;;;;4.90;2.90;;;;;;;11.90;82.25;99009.25;5072184;28;20052;-60
2023/03/23 03:13:10;;;;;;;3.92;2.88;;;;;;;11.87;82.05;99004.38;5074129;28;20053;-60
2023/03/23 03:15:43;;;;;;;3.70;2.40;;;;;;;11.83;81.63;99009.06;5073511;28;20425;-60
2023/03/23 03:18:18;;;;;;;5.00;2.78;;;;;;;11.92;81.09;99011.72;5073503;28;20048;-60
2023/03/23 03:21:07;;;;;;;3.50;2.30;;;;;;;11.98;80.71;99010.28;5074089;28;20064;-60
2023/03/23 03:23:53;;;;;;;3.78;2.58;;;;;;;12.01;80.66;98998.41;5073822;28;20123;-60
2023/03/23 03:26:28;;;;;;;4.53;2.40;;;;;;;12.08;80.05;99009.72;5071303;28;20174;-61
2023/03/23 03:29:01;;;;;;;3.10;2.20;;;;;;;12.06;78.94;98994.53;5073729;28;20405;-60
2023/03/23 03:31:32;;;;;;;3.75;2.30;;;;;;;12.12;78.90;99002.25;5073928;28;20056;-59
2023/03/23 03:34:03;;;;;;;4.05;2.35;;;;;;;12.17;78.85;99009.53;5073339;28;20063;-59
2023/03/23 03:36:36;;;;;;;3.03;2.10;;;;;;;12.19;78.17;99008.00;5073618;28;20386;-59
2023/03/23 03:39:07;;;;;;;3.65;2.33;;;;;;;12.22;77.76;99000.09;5073517;28;20493;-59
2023/03/23 03:41:39;;;;;;;4.88;2.25;;;;;;;12.24;77.93;99012.53;5072905;28;20053;-59
2023/03/23 03:44:07;;;;;;;3.72;2.22;;;;;;;12.32;77.61;99005.13;5073209;28;20055;-59
2023/03/23 03:46:35;;;;;;;3.08;2.10;;;;;;;12.26;77.25;99009.34;5073048;28;20060;-58
2023/03/23 03:49:04;;;;;;;2.38;1.80;;;;;;;12.39;76.28;99006.09;5072590;28;20397;-60
2023/03/23 03:51:35;;;;;;;2.58;2.00;;;;;;;12.34;76.28;99013.94;5073530;28;20485;-59
2023/03/23 03:54:08;;;;;;;2.92;2.10;;;;;;;12.31;75.86;99006.31;5073453;28;20512;-60
2023/03/23 03:56:45;;;;;;;3.72;1.80;;;;;;;12.27;75.27;99022.16;5073457;28;20131;-59
2023/03/23 03:59:22;;;;;;;2.85;2.03;;;;;;;12.27;75.28;99044.50;5072670;28;20421;-61
2023/03/23 04:01:58;;;;;;;2.33;1.80;;;;;;;12.38;75.50;99028.78;5071871;28;20060;-59
2023/03/23 04:04:28;;;;;;;4.18;1.92;;;;;;;12.39;74.97;99036.03;5072354;28;20057;-59
2023/03/23 04:07:10;;;;;;;3.22;1.85;;;;;;;12.35;75.38;99033.13;5072937;28;20060;-59
2023/03/23 04:09:47;;;;;;;3.30;2.00;;;;;;;12.33;74.99;99020.72;5072844;28;20052;-58
2023/03/23 04:12:20;;;;;;;3.55;2.00;;;;;;;12.36;74.16;99026.34;5073136;28;20063;-59
2023/03/23 04:14:48;;;;;;;2.92;1.88;;;;;;;12.44;74.21;99018.97;5073171;28;20462;-60
2023/03/23 04:17:17;;;;;;;2.95;1.90;;;;;;;12.39;74.38;99024.84;5072823;28;20052;-59
2023/03/23 04:19:51;;;;;;;2.42;1.92;;;;;;;12.44;74.19;99026.56;5072755;28;20127;-59
2023/03/23 04:22:29;;;;;;;2.85;1.77;;;;;;;12.33;73.53;99012.34;5072975;28;20048;-60
2023/03/23 04:25:00;;;;;;;4.25;2.30;;;;;;;12.39;74.74;99010.88;5072938;28;20052;-59
2023/03/23 04:27:30;;;;;;;3.20;2.10;;;;;;;12.50;74.25;99025.91;5072821;28;20060;-59
2023/03/23 04:29:58;;;;;;;2.53;1.65;;;;;;;12.45;74.11;99025.38;5072760;28;20111;-59
2023/03/23 04:32:28;;;;;;;2.25;1.70;;;;;;;12.50;74.16;99027.91;5072605;28;20055;-59
2023/03/23 04:34:57;;;;;;;2.45;1.60;;;;;;;12.49;73.70;99024.25;5072770;28;20498;-60
2023/03/23 04:37:33;;;;;;;2.10;1.70;;;;;;;12.49;72.83;99018.69;5072574;28;20060;-59
2023/03/23 04:40:05;;;;;;;2.58;1.65;;;;;;;12.50;72.86;99025.91;5072940;28;20056;-60
2023/03/23 04:42:34;;;;;;;2.85;1.65;;;;;;;12.49;72.65;99024.25;5072428;28;20063;-59
2023/03/23 04:45:02;;;;;;;3.10;1.60;;;;;;;12.54;72.92;99009.25;5072107;28;20063;-60
2023/03/23 04:47:34;;;;;;;3.00;1.75;;;;;;;12.58;72.91;99021.31;5072480;28;20505;-61
2023/03/23 04:50:01;;;;;;;1.80;1.45;;;;;;;12.65;72.66;99003.91;5072433;28;20053;-60
2023/03/23 04:52:30;;;;;;;2.80;1.70;;;;;;;12.59;72.59;99009.75;5072723;28;20044;-60
2023/03/23 04:54:58;;;;;;;2.30;1.50;;;;;;;12.60;72.12;99013.38;5072282;28;20052;-60
2023/03/23 04:57:27;;;;;;;2.88;1.70;;;;;;;12.63;71.79;99028.59;5072510;28;20060;-60
2023/03/23 04:59:54;;;;;;;2.95;1.70;;;;;;;12.59;72.65;99018.13;5073445;28;20053;-61
2023/03/23 05:02:21;;;;;;;2.63;1.60;;;;;;;12.61;71.94;99019.75;5076365;28;20508;-60
2023/03/23 05:04:52;;;;;;;2.33;1.67;;;;;;;12.59;72.83;99029.28;5076052;28;20059;-61
2023/03/23 05:07:21;;;;;;;2.88;1.65;;;;;;;12.64;72.71;99030.19;5076247;28;20057;-60
2023/03/23 05:09:51;;;;;;;2.63;1.70;;;;;;;12.59;72.03;99029.28;5075776;28;20074;-61
2023/03/23 05:12:18;;;;;;;4.30;1.70;;;;;;;12.63;72.24;99034.19;5076480;28;20053;-60
2023/03/23 05:14:46;;;;;;;3.22;2.08;;;;;;;12.67;71.42;99026.69;5076146;28;20048;-60
2023/03/23 05:17:18;;;;;;;2.90;1.83;;;;;;;12.67;71.75;99007.94;5075961;28;20052;-60
2023/03/23 05:19:47;;;;;;;1.92;1.50;;;;;;;12.70;72.10;99035.13;5076217;28;20063;-60
2023/03/23 05:22:15;;;;;;;3.13;1.80;;;;;;;12.73;71.89;99016.84;5075654;28;20055;-60
2023/03/23 05:24:42;;;;;;;2.70;1.50;;;;;;;12.76;71.74;99038.47;5075864;28;20059;-61
2023/03/23 05:27:11;;;;;;;2.30;1.58;;;;;;;12.76;71.25;99032.88;5075830;28;20431;-61
2023/03/23 05:29:40;;;;;;;2.33;1.60;;;;;;;12.68;70.42;99039.47;5075743;28;20493;-60
2023/03/23 05:32:08;;;;;;;2.33;1.73;;;;;;;12.69;71.02;99030.72;5075948;28;20049;-60
2023/03/23 05:34:36;;;;;;;3.70;1.65;;;;;;;12.71;70.41;99049.94;5075861;28;20059;-60
2023/03/23 05:37:04;;;;;;;2.65;1.63;;;;;;;12.76;70.61;99032.88;5075638;28;20405;-60
2023/03/23 05:39:32;;;;;;;2.42;1.70;;;;;;;12.72;70.92;99040.34;5075268;28;20063;-60
2023/03/23 05:41:59;;;;;;;2.60;1.70;;;;;;;12.79;70.71;99060.09;5075439;28;20051;-61
2023/03/23 05:44:29;;;;;;;3.13;2.08;;;;;;;12.85;69.87;99050.25;5075453;28;20083;-60
2023/03/23 05:46:56;;;;;;;4.30;1.80;;;;;;;12.79;69.97;99032.97;5075414;28;20421;-60
2023/03/23 05:49:24;;;;;;;2.30;1.50;;;;;;;12.88;69.70;99045.91;5075301;28;20052;-61
2023/03/23 05:51:51;;;;;;;2.75;1.88;;;;;;;12.88;70.06;99045.91;5075391;28;20063;-61
2023/03/23 05:54:19;;;;;;;2.35;1.75;;;;;;;12.96;69.05;99053.28;5075116;28;20417;-60
2023/03/23 05:56:46;;;;;;;2.45;1.70;;;;;;;13.01;68.97;99061.38;5075149;28;20053;-61
2023/03/23 05:59:13;;;;;;;3.67;2.00;;;;;;;13.06;69.78;99055.53;5075182;28;20515;-60
2023/03/23 06:01:42;;;;;;;3.22;1.80;;;;;;;12.96;69.12;99059.69;5075398;28;20048;-60
2023/03/23 06:04:11;;;;;;;2.58;1.60;;;;;;;13.02;70.10;99063.00;5074982;28;20052;-60
2023/03/23 06:06:39;;;;;;;2.30;1.70;;;;;;;13.14;68.96;99062.06;5075412;28;20063;-59
2023/03/23 06:09:06;;;;;;;2.88;1.60;;;;;;;13.16;68.63;99062.50;5074794;28;20048;-60
2023/03/23 06:11:34;;;;;;;2.30;1.70;;;;;;;13.11;69.52;99060.00;5074460;28;20068;-60
2023/03/23 06:14:03;;;;;;;3.22;1.95;;;;;;;13.22;68.90;99061.03;5075043;28;20056;-60
2023/03/23 06:16:30;;;;;;;4.13;2.08;;;;;;;13.22;69.25;99072.22;5074675;28;20063;-59
2023/03/23 06:19:00;;;;;;;2.75;1.63;;;;;;;13.18;68.51;99063.75;5075064;28;20382;-60
2023/03/23 06:21:27;;;;;;;;;;;;;;;13.25;67.88;99077.09;5075468;28;20059;-60
2023/03/23 06:23:55;;;;;;;2.65;1.85;;;;;;;13.24;68.85;99072.66;5074851;28;19927;-59
2023/03/23 06:26:26;;;;;;;3.67;1.73;;;;;;;13.35;67.50;99070.91;5074807;28;20057;-59
2023/03/23 06:28:54;;;;;;;2.40;1.60;;;;;;;13.40;67.48;99069.84;5074352;28;20055;-60
2023/03/23 06:31:22;;;;;;;2.97;1.80;;;;;;;13.39;66.90;99074.59;5074934;28;20064;-59
2023/03/23 06:33:50;;;;;;;2.78;2.00;;;;;;;13.49;67.43;99080.81;5074825;28;20056;-59
2023/03/23 06:36:18;;;;;;;2.78;1.70;;;;;;;13.60;67.70;99082.63;5074813;28;20481;-60
2023/03/23 06:38:46;;;;;;;4.13;1.98;;;;;;;13.62;67.29;99079.47;5074685;28;20052;-59
2023/03/23 06:41:13;;;;;;;2.28;1.60;;;;;;;13.69;66.23;99082.41;5074493;28;20048;-61
2023/03/23 06:43:40;;;;;;;5.93;1.92;;;;;;;13.74;66.61;99087.69;5074392;28;20177;-59
2023/03/23 06:46:08;;;;;;;3.70;2.22;;;;;;;13.73;65.54;99088.91;5074539;28;20401;-60
2023/03/23 06:48:36;;;;;;;3.97;1.83;;;;;;;13.76;65.19;99088.16;5074046;28;20060;-59
2023/03/23 06:51:04;;;;;;;3.13;1.65;;;;;;;13.84;65.42;99082.66;5074257;28;20060;-59
2023/03/23 06:53:32;;;;;;;2.13;1.40;;;;;;;13.92;64.95;99101.22;5073883;28;20127;-59
2023/03/23 06:56:00;;;;;;;3.58;2.13;;;;;;;13.98;65.26;99086.56;5074263;28;20063;-59
2023/03/23 06:58:28;;;;;;;3.40;2.05;;;;;;;14.09;64.48;99085.94;5073883;28;20054;-59
2023/03/23 07:00:58;;;;;;;3.15;1.60;;;;;;;14.19;63.52;99100.16;5074036;28;20495;-60
2023/03/23 07:03:25;;;;;;;;;;;;;;;14.17;63.31;99113.72;5074211;28;20497;-59
2023/03/23 07:05:53;;;;;;;2.00;1.42;;;;;;;14.12;63.70;99096.41;5074104;28;19920;-60
2023/03/23 07:08:20;;;;;;;3.92;1.80;;;;;;;14.04;63.66;99095.47;5073888;28;20416;-59
2023/03/23 07:10:52;;;;;;;3.05;1.73;;;;;;;14.10;62.43;99093.19;5073635;28;20060;-60
2023/03/23 07:13:20;;;;;;;3.88;2.00;;;;;;;14.15;62.50;99090.88;5073550;28;20448;-59
2023/03/23 07:15:48;;;;;;;3.47;1.60;;;;;;;14.25;62.89;99097.03;5073460;28;20053;-59
2023/03/23 07:18:16;;;;;;;3.88;1.92;;;;;;;14.32;61.55;99100.78;5073391;28;20052;-59
2023/03/23 07:20:43;;;;;;;3.88;1.70;;;;;;;14.30;61.75;99097.56;5073630;28;20056;-59
2023/03/23 07:23:10;;;;;;;3.83;1.75;;;;;;;14.32;60.92;99100.78;5073469;28;20436;-60
2023/03/23 07:25:38;;;;;;;3.35;1.70;;;;;;;14.32;62.06;99105.56;5073469;28;20048;-60
2023/03/23 07:28:06;;;;;;;3.85;1.73;;;;;;;14.44;61.14;99107.38;5073371;28;20063;-59
2023/03/23 07:30:34;;;;;;;2.67;1.60;;;;;;;14.43;60.29;99117.78;5073246;28;20056;-60
2023/03/23 07:33:05;;;;;;;3.85;1.83;;;;;;;14.47;60.91;99101.84;5073174;28;20463;-60
2023/03/23 07:35:37;;;;;;;3.25;1.90;;;;;;;14.50;59.84;99123.50;5073593;28;20060;-59
2023/03/23 07:38:32;;;;;;;;;;;;;;;;;;;;;
2023/03/23 07:41:04;;;;;;;3.47;1.63;;;;;;;14.45;60.73;99107.00;5073403;28;20044;-59
2023/03/23 07:46:20;;;;;;;3.72;1.77;;;;;;;14.70;58.43;99115.84;5064421;28;20052;-60
2023/03/23 07:48:51;;;;;;;3.03;1.63;;;;;;;14.85;58.32;99128.09;5072848;28;20056;-59
2023/03/23 07:51:30;;;;;;;3.38;1.45;;;;;;;14.92;58.77;99110.59;5072950;28;20053;-59
2023/03/23 07:54:08;;;;;;;3.67;1.50;;;;;;;14.80;58.60;99106.00;5073110;28;20055;-59
2023/03/23 07:56:41;;;;;;;3.00;1.55;;;;;;;15.04;58.11;99101.16;5073649;28;20044;-59
2023/03/23 07:59:20;;;;;;;3.88;1.75;;;;;;;14.98;57.08;99118.28;5072858;28;20053;-59
2023/03/23 08:01:59;;;;;;;4.25;1.60;;;;;;;15.01;57.67;99103.53;5072838;28;20044;-59
2023/03/23 08:04:27;;;;;;;3.72;1.52;;;;;;;15.01;56.92;99103.53;5072894;28;20052;-60
2023/03/23 08:07:02;;;;;;;5.38;2.00;;;;;;;15.05;57.92;99103.56;5073056;28;20057;-60
2023/03/23 08:09:32;;;;;;;3.95;1.75;;;;;;;15.23;56.27;99098.22;5072535;28;20516;-60
2023/03/23 08:12:36;;;;;;;4.68;2.33;;;;;;;15.30;55.98;99109.53;5072971;28;20056;-60
2023/03/23 08:15:14;;;;;;;4.88;1.95;;;;;;;15.44;56.46;99100.50;5072620;28;20059;-59
2023/03/23 08:17:48;;;;;;;5.50;1.60;;;;;;;15.34;57.05;99109.59;5072861;28;20060;-61
2023/03/23 08:20:25;;;;;;;3.13;1.50;;;;;;;15.47;55.82;99112.97;5072560;28;20059;-60
2023/03/23 08:22:59;;;;;;;2.80;1.58;;;;;;;15.41;56.60;99126.50;5072904;28;20055;-59
2023/03/23 08:28:23;;;;;;;2.38;1.42;;;;;;;15.50;55.87;99120.63;5072879;28;20059;-60
2023/03/23 08:31:07;;;;;;;2.30;1.50;;;;;;;15.57;55.83;99118.72;5073077;28;20056;-59
2023/03/23 08:33:37;;;;;;;3.15;1.95;;;;;;;15.62;54.94;99128.78;5072998;28;20059;-60
2023/03/23 08:36:07;;;;;;;;;;;;;;;15.52;55.55;99116.25;5072722;28;20052;-60
2023/03/23 08:39:11;;;;;;;4.20;2.45;;;;;;;15.69;54.56;99114.84;5072478;28;19925;-59
2023/03/23 08:44:46;;;;;;;2.28;1.42;;;;;;;15.81;54.15;99127.84;5030527;28;20058;-60
2023/03/23 08:47:19;;;;;;;4.03;1.60;;;;;;;15.87;54.77;99117.09;5032003;28;20065;-59
2023/03/23 08:49:55;;;;;;;3.35;1.60;;;;;;;16.00;52.99;99119.25;5072710;28;20048;-59
2023/03/23 08:52:44;;;;;;;3.50;1.48;;;;;;;16.28;52.99;99115.13;5072832;28;20507;-60
2023/03/23 08:55:13;;;;;;;5.90;1.60;;;;;;;16.39;52.41;99129.28;5072877;28;20040;-60
2023/03/23 09:00:47;;;;;;;2.78;1.27;;;;;;;16.41;51.46;99136.13;5063249;28;20061;-60
2023/03/23 09:03:17;;;;;;;3.33;1.50;;;;;;;16.54;51.59;99124.59;5072300;28;20409;-59
2023/03/23 09:05:51;;;;;;;3.60;1.30;;;;;;;16.77;50.48;99133.63;5072711;28;20059;-60
2023/03/23 09:11:08;;;;;;;3.22;1.40;;;;;;;17.11;49.36;99141.16;5064743;28;20053;-59
2023/03/23 09:13:39;;;;;;;2.40;1.38;;;;;;;17.37;48.57;99137.31;5071888;28;20048;-59
2023/03/23 09:16:08;;;;;;;4.18;1.58;;;;;;;17.68;48.15;99137.84;5072336;28;20063;-59
2023/03/23 09:18:46;;;;;;;2.70;1.10;;;;;;;17.52;48.02;99149.44;5072533;28;20052;-59
2023/03/23 09:27:36;;;;;;;7.88;2.00;;;;;;;16.99;50.17;99159.16;5064820;28;20056;-59
2023/03/23 09:30:15;;;;;;;5.68;1.60;;;;;;;16.73;51.89;99162.91;5072604;28;20056;-59
2023/03/23 09:32:50;;;;;;;3.45;1.52;;;;;;;16.46;54.29;99170.69;5072113;28;20056;-59
2023/03/23 09:35:35;;;;;;;3.08;1.50;;;;;;;16.17;55.72;99165.59;5072374;28;20052;-60
2023/03/23 09:38:12;;;;;;;6.32;1.92;;;;;;;16.05;55.29;99171.47;5071569;28;20056;-60
2023/03/23 09:41:02;;;;;;;3.38;1.80;;;;;;;15.86;54.82;99175.25;5071671;28;20520;-59
2023/03/23 09:44:04;;;;;;;3.90;1.40;;;;;;;15.97;55.72;99166.97;5064138;28;20052;-59
2023/03/23 09:49:57;;;;;;;6.03;1.63;;;;;;;15.87;53.60;99160.00;5075571;28;20409;-59
2023/03/23 09:56:09;;;;;;;5.22;1.63;;;;;;;15.96;52.89;99179.41;5062771;28;20064;-59
2023/03/23 10:01:45;;;;;;;6.13;1.90;;;;;;;16.10;52.71;99193.59;5053673;28;20057;-59
2023/03/23 10:04:50;;;;;;;7.00;2.28;;;;;;;16.02;51.92;99197.50;5061524;28;20059;-59
2023/03/23 10:07:47;;;;;;;4.93;2.10;;;;;;;16.11;52.41;99181.16;5031996;28;20497;-59
2023/03/23 10:10:43;;;;;;;5.35;1.77;;;;;;;16.35;51.27;99184.63;5074558;28;20057;-59
2023/03/23 10:16:38;;;;;;;5.55;1.52;;;;;;;16.92;50.05;99161.91;5034011;28;20053;-59
2023/03/23 10:19:33;;;;;;;4.68;1.63;;;;;;;16.92;49.96;99167.53;5053141;28;20048;-59
2023/03/23 10:22:49;;;;;;;5.30;1.73;;;;;;;17.15;48.75;99164.50;5070119;28;20055;-60
2023/03/23 10:25:23;;;;;;;4.90;2.10;;;;;;;17.35;47.61;99157.41;5075005;28;20060;-59
2023/03/23 10:28:03;;;;;;;4.05;2.10;;;;;;;17.51;47.49;99156.28;5074858;28;20052;-59
2023/03/23 10:30:41;;;;;;;3.45;1.80;;;;;;;18.17;45.62;99159.81;5074312;28;20064;-60
2023/03/23 10:33:16;;;;;;;4.67;1.73;;;;;;;20.65;40.05;99160.19;5074830;28;20049;-60
2023/03/23 10:35:51;;;;;;;5.07;1.60;;;;;;;19.41;42.40;99162.31;5075030;28;20417;-60
2023/03/23 10:38:24;;;;;;;5.05;1.75;;;;;;;19.59;42.42;99173.56;5075177;28;20059;-60
2023/03/23 10:41:02;;;;;;;4.32;1.60;;;;;;;19.22;41.25;99181.28;5074613;28;20075;-60
2023/03/23 10:43:30;;;;;;;6.65;1.90;;;;;;;18.76;41.89;99179.25;5074956;28;20052;-60
2023/03/23 10:46:04;;;;;;;5.07;1.75;;;;;;;18.57;42.67;99197.34;5075309;28;20515;-60
2023/03/23 10:48:39;;;;;;;4.97;1.60;;;;;;;17.83;43.85;99174.19;5074883;28;20053;-60
2023/03/23 10:51:14;;;;;;;4.85;1.80;;;;;;;17.19;45.38;99182.19;5075332;28;20064;-59
2023/03/23 10:53:53;;;;;;;4.97;1.98;;;;;;;16.75;49.21;99203.50;5074927;28;20056;-60
2023/03/23 10:59:48;;;;;;;3.53;1.83;;;;;;;16.44;51.46;99222.50;5064419;28;20425;-60
2023/03/23 11:02:22;;;;;;;3.60;1.70;;;;;;;16.23;54.34;99239.91;5074216;28;20056;-60
2023/03/23 11:05:24;;;;;;;4.38;1.90;;;;;;;15.90;57.30;99248.31;5074112;28;20393;-60
2023/03/23 11:07:57;;;;;;;4.05;2.08;;;;;;;15.91;57.95;99250.72;5074332;28;20060;-60
2023/03/23 11:16:29;;;;;;;2.85;1.52;;;;;;;15.84;57.93;99261.88;5078873;28;20425;-59
2023/03/23 11:19:21;;;;;;;3.33;1.95;;;;;;;15.82;58.24;99269.88;5074096;28;20484;-60
2023/03/23 11:22:33;;;;;;;4.35;2.30;;;;;;;15.56;59.34;99262.22;5073936;28;20052;-60
2023/03/23 11:25:06;;;;;;;4.00;2.60;;;;;;;15.51;58.88;99277.38;5037241;28;20059;-60
2023/03/23 11:27:56;;;;;;;;;;;;;;;;;;;;;
2023/03/23 11:33:35;;;;;;;4.65;2.90;;;;;;;15.08;63.83;99270.28;5051138;28;20093;-63
2023/03/23 11:36:05;;;;;;;4.75;3.33;;;;;;;14.91;65.25;99271.56;5072770;28;20060;-60
2023/03/23 11:38:41;;;;;;;5.20;3.13;;;;;;;15.09;64.57;99264.28;5073184;28;20056;-60
2023/03/23 11:41:23;;;;;;;3.58;3.00;;;;;;;15.14;64.30;99263.16;5073294;28;20055;-61
2023/03/23 11:44:12;;;;;;;5.88;3.55;;;;;;;15.23;64.11;99266.53;5073174;28;20460;-61
2023/03/23 11:47:19;;;;;;;2.97;2.67;;;;;;;15.27;63.91;99260.97;5072990;28;20052;-61
2023/03/23 11:49:58;;;;;;;3.25;2.30;;;;;;;15.04;64.19;99267.41;5073190;28;20493;-60
2023/03/23 11:52:42;;;;;;;5.10;2.38;;;;;;;14.83;64.61;99267.84;5073654;28;20418;-59
2023/03/23 11:55:17;;;;;;;3.50;2.03;;;;;;;14.79;65.42;99270.56;5073175;28;20059;-60
2023/03/23 11:57:49;;;;;;;4.22;2.50;;;;;;;14.63;66.05;99266.25;5072943;28;20056;-61
2023/03/23 12:00:19;;;;;;;3.50;1.83;;;;;;;14.59;66.63;99269.81;5073229;28;20056;-60
2023/03/23 12:03:21;;;;;;;3.55;1.63;;;;;;;14.56;66.94;99276.16;5072867;28;20405;-60
2023/03/23 12:09:06;;;;;;;1.80;1.23;;;;;;;14.56;66.84;99252.94;5070666;28;20060;-60
2023/03/23 12:12:04;;;;;;;3.40;1.30;;;;;;;14.41;66.50;99260.22;5072968;28;20106;-59
2023/03/23 12:14:51;;;;;;;3.88;1.10;;;;;;;14.41;66.95;99263.81;5073322;28;20055;-60
2023/03/23 12:17:30;;;;;;;2.83;1.20;;;;;;;14.33;67.08;99264.06;5072896;28;20059;-60
2023/03/23 12:20:16;;;;;;;2.90;1.40;;;;;;;14.26;68.02;99261.91;5073326;28;20056;-60
2023/03/23 12:22:54;;;;;;;2.20;1.40;;;;;;;14.24;66.68;99253.06;5072998;28;20059;-60
2023/03/23 12:29:12;;;;;;;6.53;1.90;;;;;;;14.52;68.35;99257.63;5031258;28;20561;-61
2023/03/23 12:31:48;;;;;;;3.08;1.60;;;;;;;14.51;68.54;99258.78;5060664;28;20056;-60
2023/03/23 12:34:27;;;;;;;3.42;2.30;;;;;;;14.68;67.84;99268.75;5072632;28;20059;-61
2023/03/23 12:37:20;;;;;;;3.40;2.03;;;;;;;14.95;67.97;99259.25;5072544;28;20068;-61
2023/03/23 12:40:09;;;;;;;4.80;2.00;;;;;;;15.36;67.04;99251.09;5060276;28;20056;-61
2023/03/23 12:43:06;;;;;;;2.35;1.70;;;;;;;15.36;65.72;99250.28;5073016;28;20052;-60
2023/03/23 12:46:14;;;;;;;3.65;1.77;;;;;;;15.45;66.10;99255.63;5072264;28;20053;-61
2023/03/23 12:48:52;;;;;;;3.47;1.77;;;;;;;15.29;64.45;99245.38;5066843;28;20056;-60
2023/03/23 12:54:28;;;;;;;4.03;2.20;;;;;;;15.25;65.82;99247.31;5072328;28;20409;-60
2023/03/23 12:57:03;;;;;;;3.38;2.10;;;;;;;15.32;65.83;99255.03;5072471;28;20075;-61
2023/03/23 12:59:40;;;;;;;2.58;1.88;;;;;;;15.19;65.80;99257.25;5072347;28;20068;-60
2023/03/23 13:02:17;;;;;;;4.05;2.28;;;;;;;15.06;65.80;99270.66;5072387;28;20063;-60
2023/03/23 13:04:51;;;;;;;3.20;1.90;;;;;;;15.12;66.59;99265.53;5071595;28;20052;-60
2023/03/23 13:07:24;;;;;;;3.58;2.63;;;;;;;15.13;66.25;99265.16;5072507;28;20057;-60
2023/03/23 13:13:14;;;;;;;4.95;2.60;;;;;;;15.13;65.81;99261.53;5055863;28;20079;-61
2023/03/23 13:15:56;;;;;;;4.30;2.67;;;;;;;14.90;66.24;99265.16;5072640;28;20052;-61
2023/03/23 13:18:36;;;;;;;7.00;3.85;;;;;;;15.25;66.95;99268.97;5072268;28;20048;-60